sensor_id;sensor_type;location;lat;lon;timestamp;pressure;altitude;pressure_sealevel;temperature;humidity
59154;BME280;44935;48.944;9.418;2022-07-06T00:00:00;99222.63;;;15.94;51.28
59154;BME280;44935;48.944;9.418;2022-07-06T00:02:27;99223.01;;;16.29;51.06
59154;BME280;44935;48.944;9.418;2022-07-06T00:04:54;99223.97;;;16.27;50.43
59154;BME280;44935;48.944;9.418;2022-07-06T00:07:21;99224.71;;;16.33;51.07
59154;BME280;44935;48.944;9.418;2022-07-06T00:09:48;99228.63;;;16.46;50.60
59154;BME280;44935;48.944;9.418;2022-07-06T00:12:14;99226.19;;;16.38;50.59
59154;BME280;44935;48.944;9.418;2022-07-06T00:14:41;99229.97;;;16.17;51.13
59154;BME280;44935;48.944;9.418;2022-07-06T00:17:08;99233.00;;;16.06;50.70
59154;BME280;44935;48.944;9.418;2022-07-06T00:19:35;99235.36;;;15.91;51.11
59154;BME280;44935;48.944;9.418;2022-07-06T00:22:02;99234.72;;;16.31;51.49
59154;BME280;44935;48.944;9.418;2022-07-06T00:24:30;99240.59;;;16.05;51.91
59154;BME280;44935;48.944;9.418;2022-07-06T00:26:57;99239.19;;;15.89;52.12
59154;BME280;44935;48.944;9.418;2022-07-06T00:29:24;99238.45;;;16.12;51.88
59154;BME280;44935;48.944;9.418;2022-07-06T00:31:50;99236.78;;;16.04;51.44
59154;BME280;44935;48.944;9.418;2022-07-06T00:34:17;99235.41;;;16.14;51.19
59154;BME280;44935;48.944;9.418;2022-07-06T00:36:44;99239.58;;;16.25;51.31
59154;BME280;44935;48.944;9.418;2022-07-06T00:39:11;99237.69;;;16.37;50.77
59154;BME280;44935;48.944;9.418;2022-07-06T00:41:38;99237.10;;;16.94;49.57
59154;BME280;44935;48.944;9.418;2022-07-06T00:44:08;99236.34;;;16.62;49.46
59154;BME280;44935;48.944;9.418;2022-07-06T00:46:36;99239.10;;;16.35;50.56
59154;BME280;44935;48.944;9.418;2022-07-06T00:49:03;99237.48;;;16.54;50.59
59154;BME280;44935;48.944;9.418;2022-07-06T00:51:34;99237.64;;;16.44;49.75
59154;BME280;44935;48.944;9.418;2022-07-06T00:54:04;99236.08;;;16.71;49.01
59154;BME280;44935;48.944;9.418;2022-07-06T00:56:32;99236.16;;;17.25;47.81
59154;BME280;44935;48.944;9.418;2022-07-06T00:59:13;99237.77;;;16.86;48.10
59154;BME280;44935;48.944;9.418;2022-07-06T01:01:41;99239.67;;;17.63;46.33
59154;BME280;44935;48.944;9.418;2022-07-06T01:04:07;99238.97;;;18.13;45.59
59154;BME280;44935;48.944;9.418;2022-07-06T01:06:35;99242.08;;;17.80;46.14
59154;BME280;44935;48.944;9.418;2022-07-06T01:09:03;99239.17;;;17.43;47.17
59154;BME280;44935;48.944;9.418;2022-07-06T01:11:31;99239.31;;;16.47;49.11
59154;BME280;44935;48.944;9.418;2022-07-06T01:14:00;99237.12;;;16.12;50.05
59154;BME280;44935;48.944;9.418;2022-07-06T01:16:27;99238.43;;;16.01;50.65
59154;BME280;44935;48.944;9.418;2022-07-06T01:18:55;99234.97;;;16.23;50.15
59154;BME280;44935;48.944;9.418;2022-07-06T01:21:22;99231.60;;;16.42;49.75
59154;BME280;44935;48.944;9.418;2022-07-06T01:23:49;99232.05;;;16.49;49.68
59154;BME280;44935;48.944;9.418;2022-07-06T01:26:18;99231.42;;;16.21;50.05
59154;BME280;44935;48.944;9.418;2022-07-06T01:28:46;99234.57;;;15.91;50.13
59154;BME280;44935;48.944;9.418;2022-07-06T01:31:15;99231.16;;;16.32;49.85
59154;BME280;44935;48.944;9.418;2022-07-06T01:33:44;99229.16;;;15.79;49.43
59154;BME280;44935;48.944;9.418;2022-07-06T01:36:11;99229.86;;;16.44;49.08
59154;BME280;44935;48.944;9.418;2022-07-06T01:38:46;99228.01;;;16.28;48.99
59154;BME280;44935;48.944;9.418;2022-07-06T01:41:14;99230.41;;;16.21;49.14
59154;BME280;44935;48.944;9.418;2022-07-06T01:43:40;99227.92;;;16.73;49.04
59154;BME280;44935;48.944;9.418;2022-07-06T01:46:07;99226.26;;;16.36;49.04
59154;BME280;44935;48.944;9.418;2022-07-06T01:48:34;99229.40;;;16.80;47.54
59154;BME280;44935;48.944;9.418;2022-07-06T01:51:01;99227.83;;;16.51;47.70
59154;BME280;44935;48.944;9.418;2022-07-06T01:53:28;99224.70;;;16.12;48.67
59154;BME280;44935;48.944;9.418;2022-07-06T01:55:55;99227.03;;;15.88;49.64
59154;BME280;44935;48.944;9.418;2022-07-06T01:58:22;99222.91;;;16.22;48.87
59154;BME280;44935;48.944;9.418;2022-07-06T02:00:49;99223.90;;;16.49;48.32
59154;BME280;44935;48.944;9.418;2022-07-06T02:03:16;99227.14;;;16.51;48.87
59154;BME280;44935;48.944;9.418;2022-07-06T02:05:43;99227.91;;;16.39;48.62
59154;BME280;44935;48.944;9.418;2022-07-06T02:08:10;99226.74;;;16.18;48.77
59154;BME280;44935;48.944;9.418;2022-07-06T02:10:37;99227.50;;;16.57;47.94
59154;BME280;44935;48.944;9.418;2022-07-06T02:13:04;99231.75;;;16.10;48.90
59154;BME280;44935;48.944;9.418;2022-07-06T02:15:31;99239.76;;;15.79;49.33
59154;BME280;44935;48.944;9.418;2022-07-06T02:17:58;99239.71;;;15.84;50.37
59154;BME280;44935;48.944;9.418;2022-07-06T02:20:24;99247.03;;;14.88;51.28
59154;BME280;44935;48.944;9.418;2022-07-06T02:22:51;99247.99;;;14.76;51.92
59154;BME280;44935;48.944;9.418;2022-07-06T02:25:18;99248.12;;;14.65;52.55
59154;BME280;44935;48.944;9.418;2022-07-06T02:27:45;99250.42;;;14.62;52.46
59154;BME280;44935;48.944;9.418;2022-07-06T02:30:12;99252.20;;;14.66;51.92
59154;BME280;44935;48.944;9.418;2022-07-06T02:32:39;99256.17;;;15.00;51.75
59154;BME280;44935;48.944;9.418;2022-07-06T02:35:07;99253.67;;;14.79;51.81
59154;BME280;44935;48.944;9.418;2022-07-06T02:37:34;99253.03;;;14.82;51.79
59154;BME280;44935;48.944;9.418;2022-07-06T02:40:01;99248.14;;;14.50;52.10
59154;BME280;44935;48.944;9.418;2022-07-06T02:42:28;99247.31;;;14.29;52.35
59154;BME280;44935;48.944;9.418;2022-07-06T02:44:55;99244.65;;;14.95;51.94
59154;BME280;44935;48.944;9.418;2022-07-06T02:47:21;99248.25;;;14.82;52.19
59154;BME280;44935;48.944;9.418;2022-07-06T02:49:48;99249.35;;;14.68;52.34
59154;BME280;44935;48.944;9.418;2022-07-06T02:52:15;99251.50;;;14.50;52.54
59154;BME280;44935;48.944;9.418;2022-07-06T02:54:42;99254.15;;;14.34;53.22
59154;BME280;44935;48.944;9.418;2022-07-06T02:57:09;99256.53;;;14.31;53.11
59154;BME280;44935;48.944;9.418;2022-07-06T02:59:36;99260.48;;;14.29;53.05
59154;BME280;44935;48.944;9.418;2022-07-06T03:02:03;99264.78;;;14.49;53.14
59154;BME280;44935;48.944;9.418;2022-07-06T03:04:31;99269.10;;;14.22;53.47
59154;BME280;44935;48.944;9.418;2022-07-06T03:06:59;99268.87;;;13.94;53.90
59154;BME280;44935;48.944;9.418;2022-07-06T03:09:26;99272.05;;;14.29;53.30
59154;BME280;44935;48.944;9.418;2022-07-06T03:11:53;99269.72;;;14.43;52.92
59154;BME280;44935;48.944;9.418;2022-07-06T03:14:20;99268.11;;;14.42;52.83
59154;BME280;44935;48.944;9.418;2022-07-06T03:16:47;99270.17;;;14.45;52.60
59154;BME280;44935;48.944;9.418;2022-07-06T03:19:14;99270.05;;;14.56;52.59
59154;BME280;44935;48.944;9.418;2022-07-06T03:21:41;99270.48;;;14.60;52.88
59154;BME280;44935;48.944;9.418;2022-07-06T03:24:08;99271.62;;;14.56;52.61
59154;BME280;44935;48.944;9.418;2022-07-06T03:26:34;99275.36;;;15.06;51.93
59154;BME280;44935;48.944;9.418;2022-07-06T03:29:02;99278.37;;;14.78;52.47
59154;BME280;44935;48.944;9.418;2022-07-06T03:31:29;99274.20;;;14.70;51.83
59154;BME280;44935;48.944;9.418;2022-07-06T03:33:56;99279.77;;;15.32;50.97
59154;BME280;44935;48.944;9.418;2022-07-06T03:36:23;99281.35;;;15.18;50.40
59154;BME280;44935;48.944;9.418;2022-07-06T03:38:50;99285.57;;;15.24;49.99
59154;BME280;44935;48.944;9.418;2022-07-06T03:41:17;99287.34;;;15.68;49.18
59154;BME280;44935;48.944;9.418;2022-07-06T03:43:43;99288.67;;;15.69;49.82
59154;BME280;44935;48.944;9.418;2022-07-06T03:46:10;99291.42;;;15.35;49.96
59154;BME280;44935;48.944;9.418;2022-07-06T03:48:37;99288.49;;;15.80;48.89
59154;BME280;44935;48.944;9.418;2022-07-06T03:51:04;99290.27;;;15.23;50.72
59154;BME280;44935;48.944;9.418;2022-07-06T03:53:31;99291.60;;;15.00;51.14
59154;BME280;44935;48.944;9.418;2022-07-06T03:55:58;99291.18;;;14.91;50.95
59154;BME280;44935;48.944;9.418;2022-07-06T03:58:25;99289.42;;;14.15;51.48
59154;BME280;44935;48.944;9.418;2022-07-06T04:00:52;99287.13;;;14.11;52.33
59154;BME280;44935;48.944;9.418;2022-07-06T04:03:19;99289.25;;;15.00;51.04
59154;BME280;44935;48.944;9.418;2022-07-06T04:05:46;99287.46;;;14.76;51.09
59154;BME280;44935;48.944;9.418;2022-07-06T04:08:13;99289.71;;;14.74;51.23
59154;BME280;44935;48.944;9.418;2022-07-06T04:10:40;99292.32;;;14.59;52.02
59154;BME280;44935;48.944;9.418;2022-07-06T04:13:07;99297.33;;;14.46;52.64
59154;BME280;44935;48.944;9.418;2022-07-06T04:15:35;99298.09;;;14.43;52.13
59154;BME280;44935;48.944;9.418;2022-07-06T04:18:02;99298.91;;;14.11;52.56
59154;BME280;44935;48.944;9.418;2022-07-06T04:20:30;99303.71;;;14.59;52.14
59154;BME280;44935;48.944;9.418;2022-07-06T04:22:56;99305.40;;;14.40;52.28
59154;BME280;44935;48.944;9.418;2022-07-06T04:25:23;99308.99;;;14.93;51.34
59154;BME280;44935;48.944;9.418;2022-07-06T04:27:50;99306.46;;;14.66;51.02
59154;BME280;44935;48.944;9.418;2022-07-06T04:30:17;99306.84;;;14.90;51.57
59154;BME280;44935;48.944;9.418;2022-07-06T04:32:44;99306.80;;;14.53;51.89
59154;BME280;44935;48.944;9.418;2022-07-06T04:35:11;99312.81;;;14.64;50.96
59154;BME280;44935;48.944;9.418;2022-07-06T04:37:38;99311.91;;;14.81;51.49
59154;BME280;44935;48.944;9.418;2022-07-06T04:40:06;99313.93;;;14.72;52.42
59154;BME280;44935;48.944;9.418;2022-07-06T04:42:33;99317.13;;;14.94;51.35
59154;BME280;44935;48.944;9.418;2022-07-06T04:45:00;99323.37;;;15.13;50.97
59154;BME280;44935;48.944;9.418;2022-07-06T04:47:27;99327.22;;;14.89;51.42
59154;BME280;44935;48.944;9.418;2022-07-06T04:49:54;99328.90;;;14.76;51.89
59154;BME280;44935;48.944;9.418;2022-07-06T04:52:21;99333.02;;;15.15;51.40
59154;BME280;44935;48.944;9.418;2022-07-06T04:54:48;99333.52;;;15.54;50.38
59154;BME280;44935;48.944;9.418;2022-07-06T04:57:15;99335.02;;;15.56;50.68
59154;BME280;44935;48.944;9.418;2022-07-06T04:59:42;99334.53;;;15.80;49.80
59154;BME280;44935;48.944;9.418;2022-07-06T05:02:09;99337.05;;;15.39;50.00
59154;BME280;44935;48.944;9.418;2022-07-06T05:04:36;99340.62;;;15.94;48.86
59154;BME280;44935;48.944;9.418;2022-07-06T05:07:03;99343.27;;;16.34;48.44
59154;BME280;44935;48.944;9.418;2022-07-06T05:09:31;99346.08;;;16.33;49.05
59154;BME280;44935;48.944;9.418;2022-07-06T05:11:57;99347.32;;;16.05;49.59
59154;BME280;44935;48.944;9.418;2022-07-06T05:14:24;99349.57;;;16.16;49.48
59154;BME280;44935;48.944;9.418;2022-07-06T05:16:51;99351.61;;;16.27;49.67
59154;BME280;44935;48.944;9.418;2022-07-06T05:19:19;99349.90;;;16.19;50.06
59154;BME280;44935;48.944;9.418;2022-07-06T05:21:45;99352.31;;;15.85;50.50
59154;BME280;44935;48.944;9.418;2022-07-06T05:24:12;99350.71;;;16.07;50.32
59154;BME280;44935;48.944;9.418;2022-07-06T05:26:39;99354.99;;;16.28;50.24
59154;BME280;44935;48.944;9.418;2022-07-06T05:29:06;99352.21;;;16.10;49.92
59154;BME280;44935;48.944;9.418;2022-07-06T05:31:33;99352.09;;;16.24;49.86
59154;BME280;44935;48.944;9.418;2022-07-06T05:34:00;99354.67;;;16.25;49.75
59154;BME280;44935;48.944;9.418;2022-07-06T05:36:27;99359.45;;;15.93;49.38
59154;BME280;44935;48.944;9.418;2022-07-06T05:38:54;99361.37;;;16.21;50.34
59154;BME280;44935;48.944;9.418;2022-07-06T05:41:22;99362.27;;;16.18;49.48
59154;BME280;44935;48.944;9.418;2022-07-06T05:43:49;99359.28;;;16.17;50.01
59154;BME280;44935;48.944;9.418;2022-07-06T05:46:16;99360.18;;;16.46;49.69
59154;BME280;44935;48.944;9.418;2022-07-06T05:48:43;99360.63;;;16.36;49.69
59154;BME280;44935;48.944;9.418;2022-07-06T05:51:09;99358.06;;;16.77;49.54
59154;BME280;44935;48.944;9.418;2022-07-06T05:53:36;99359.54;;;16.46;48.74
59154;BME280;44935;48.944;9.418;2022-07-06T05:56:03;99359.69;;;16.90;48.76
59154;BME280;44935;48.944;9.418;2022-07-06T05:58:31;99357.17;;;16.78;48.65
59154;BME280;44935;48.944;9.418;2022-07-06T06:00:58;99355.79;;;16.85;48.52
59154;BME280;44935;48.944;9.418;2022-07-06T06:03:25;99353.45;;;17.42;47.86
59154;BME280;44935;48.944;9.418;2022-07-06T06:05:52;99351.99;;;17.62;47.12
59154;BME280;44935;48.944;9.418;2022-07-06T06:08:19;99356.49;;;17.37;47.44
59154;BME280;44935;48.944;9.418;2022-07-06T06:10:46;99355.72;;;16.81;47.15
59154;BME280;44935;48.944;9.418;2022-07-06T06:13:12;99361.39;;;16.57;47.33
59154;BME280;44935;48.944;9.418;2022-07-06T06:15:39;99355.01;;;17.50;46.24
59154;BME280;44935;48.944;9.418;2022-07-06T06:18:06;99356.95;;;18.09;45.37
59154;BME280;44935;48.944;9.418;2022-07-06T06:20:33;99356.28;;;18.60;44.18
59154;BME280;44935;48.944;9.418;2022-07-06T06:23:00;99358.46;;;18.62;43.54
59154;BME280;44935;48.944;9.418;2022-07-06T06:25:30;99357.64;;;19.00;42.23
59154;BME280;44935;48.944;9.418;2022-07-06T06:27:57;99363.15;;;18.94;42.54
59154;BME280;44935;48.944;9.418;2022-07-06T06:30:24;99366.78;;;18.58;43.28
59154;BME280;44935;48.944;9.418;2022-07-06T06:33:03;99367.54;;;17.54;44.61
59154;BME280;44935;48.944;9.418;2022-07-06T06:35:30;99370.88;;;18.23;43.79
59154;BME280;44935;48.944;9.418;2022-07-06T06:37:57;99370.10;;;18.81;43.13
59154;BME280;44935;48.944;9.418;2022-07-06T06:40:24;99370.26;;;17.87;43.77
59154;BME280;44935;48.944;9.418;2022-07-06T06:42:51;99368.74;;;17.79;44.51
59154;BME280;44935;48.944;9.418;2022-07-06T06:45:17;99365.09;;;19.18;42.57
59154;BME280;44935;48.944;9.418;2022-07-06T06:47:45;99367.69;;;18.96;42.43
59154;BME280;44935;48.944;9.418;2022-07-06T06:50:12;99368.88;;;18.56;43.07
59154;BME280;44935;48.944;9.418;2022-07-06T06:52:39;99367.02;;;18.85;42.13
59154;BME280;44935;48.944;9.418;2022-07-06T06:55:07;99366.94;;;18.65;42.04
59154;BME280;44935;48.944;9.418;2022-07-06T06:57:34;99369.29;;;18.40;41.84
59154;BME280;44935;48.944;9.418;2022-07-06T07:00:02;99370.63;;;19.40;41.69
59154;BME280;44935;48.944;9.418;2022-07-06T07:02:30;99367.94;;;19.50;41.01
59154;BME280;44935;48.944;9.418;2022-07-06T07:04:57;99363.88;;;19.45;41.59
59154;BME280;44935;48.944;9.418;2022-07-06T07:07:24;99360.15;;;19.72;41.09
59154;BME280;44935;48.944;9.418;2022-07-06T07:09:51;99360.59;;;19.59;41.35
59154;BME280;44935;48.944;9.418;2022-07-06T07:12:17;99361.93;;;19.64;40.56
59154;BME280;44935;48.944;9.418;2022-07-06T07:14:44;99362.90;;;20.15;39.56
59154;BME280;44935;48.944;9.418;2022-07-06T07:17:11;99361.98;;;20.27;39.14
59154;BME280;44935;48.944;9.418;2022-07-06T07:19:38;99361.76;;;20.05;39.82
59154;BME280;44935;48.944;9.418;2022-07-06T07:22:06;99360.09;;;19.56;41.03
59154;BME280;44935;48.944;9.418;2022-07-06T07:24:33;99359.16;;;19.12;41.43
59154;BME280;44935;48.944;9.418;2022-07-06T07:27:00;99358.41;;;19.02;40.67
59154;BME280;44935;48.944;9.418;2022-07-06T07:29:26;99353.96;;;19.23;41.61
59154;BME280;44935;48.944;9.418;2022-07-06T07:31:53;99352.99;;;20.35;40.18
59154;BME280;44935;48.944;9.418;2022-07-06T07:34:20;99360.29;;;20.46;39.27
59154;BME280;44935;48.944;9.418;2022-07-06T07:36:47;99353.15;;;20.03;39.99
59154;BME280;44935;48.944;9.418;2022-07-06T07:39:14;99350.87;;;19.76;40.10
59154;BME280;44935;48.944;9.418;2022-07-06T07:41:41;99351.70;;;18.96;42.04
59154;BME280;44935;48.944;9.418;2022-07-06T07:44:07;99351.28;;;19.41;41.99
59154;BME280;44935;48.944;9.418;2022-07-06T07:46:34;99354.33;;;19.17;41.59
59154;BME280;44935;48.944;9.418;2022-07-06T07:49:01;99350.43;;;18.63;42.80
59154;BME280;44935;48.944;9.418;2022-07-06T07:51:28;99351.00;;;18.81;41.39
59154;BME280;44935;48.944;9.418;2022-07-06T07:53:55;99349.17;;;18.92;40.87
59154;BME280;44935;48.944;9.418;2022-07-06T07:56:22;99347.89;;;19.44;40.43
59154;BME280;44935;48.944;9.418;2022-07-06T07:58:49;99344.37;;;18.90;41.32
59154;BME280;44935;48.944;9.418;2022-07-06T08:01:16;99348.20;;;20.47;38.66
59154;BME280;44935;48.944;9.418;2022-07-06T08:03:42;99344.33;;;19.92;40.11
59154;BME280;44935;48.944;9.418;2022-07-06T08:06:10;99347.28;;;20.47;38.75
59154;BME280;44935;48.944;9.418;2022-07-06T08:08:37;99349.36;;;20.86;38.06
59154;BME280;44935;48.944;9.418;2022-07-06T08:11:04;99348.36;;;21.26;37.46
59154;BME280;44935;48.944;9.418;2022-07-06T08:13:31;99347.73;;;19.39;39.86
59154;BME280;44935;48.944;9.418;2022-07-06T08:15:58;99349.81;;;19.12;41.05
59154;BME280;44935;48.944;9.418;2022-07-06T08:18:25;99350.95;;;18.58;42.48
59154;BME280;44935;48.944;9.418;2022-07-06T08:20:51;99353.18;;;19.94;39.13
59154;BME280;44935;48.944;9.418;2022-07-06T08:23:18;99349.95;;;19.62;39.62
59154;BME280;44935;48.944;9.418;2022-07-06T08:25:45;99352.16;;;18.49;41.70
59154;BME280;44935;48.944;9.418;2022-07-06T08:28:12;99354.65;;;19.90;39.67
59154;BME280;44935;48.944;9.418;2022-07-06T08:30:39;99353.16;;;19.96;37.91
59154;BME280;44935;48.944;9.418;2022-07-06T08:33:06;99349.52;;;19.13;39.40
59154;BME280;44935;48.944;9.418;2022-07-06T08:35:33;99345.53;;;19.34;39.26
59154;BME280;44935;48.944;9.418;2022-07-06T08:38:00;99342.61;;;19.72;38.24
59154;BME280;44935;48.944;9.418;2022-07-06T08:40:31;99345.42;;;19.92;37.86
59154;BME280;44935;48.944;9.418;2022-07-06T08:42:59;99348.39;;;20.48;38.35
59154;BME280;44935;48.944;9.418;2022-07-06T08:45:27;99342.06;;;19.58;39.25
59154;BME280;44935;48.944;9.418;2022-07-06T08:48:00;99347.22;;;20.54;38.13
59154;BME280;44935;48.944;9.418;2022-07-06T08:50:30;99344.31;;;20.37;37.43
59154;BME280;44935;48.944;9.418;2022-07-06T08:52:57;99346.36;;;20.32;37.39
59154;BME280;44935;48.944;9.418;2022-07-06T08:55:25;99343.39;;;20.33;38.55
59154;BME280;44935;48.944;9.418;2022-07-06T08:57:54;99339.90;;;20.01;37.44
59154;BME280;44935;48.944;9.418;2022-07-06T09:00:22;99341.69;;;19.65;38.52
59154;BME280;44935;48.944;9.418;2022-07-06T09:02:49;99337.61;;;18.25;40.65
59154;BME280;44935;48.944;9.418;2022-07-06T09:05:17;99341.44;;;19.89;39.71
59154;BME280;44935;48.944;9.418;2022-07-06T09:07:46;99344.29;;;20.06;38.76
59154;BME280;44935;48.944;9.418;2022-07-06T09:10:18;99345.87;;;20.16;39.05
59154;BME280;44935;48.944;9.418;2022-07-06T09:12:45;99349.21;;;20.40;39.46
59154;BME280;44935;48.944;9.418;2022-07-06T09:15:12;99353.52;;;20.31;39.19
59154;BME280;44935;48.944;9.418;2022-07-06T09:17:40;99353.27;;;20.22;38.21
59154;BME280;44935;48.944;9.418;2022-07-06T09:20:09;99348.61;;;19.76;39.84
59154;BME280;44935;48.944;9.418;2022-07-06T09:22:37;99355.32;;;20.02;38.97
59154;BME280;44935;48.944;9.418;2022-07-06T09:25:06;99355.20;;;21.44;36.63
59154;BME280;44935;48.944;9.418;2022-07-06T09:27:37;99362.62;;;20.61;38.32
59154;BME280;44935;48.944;9.418;2022-07-06T09:30:05;99359.44;;;21.08;37.54
59154;BME280;44935;48.944;9.418;2022-07-06T09:32:38;99362.83;;;20.93;38.72
59154;BME280;44935;48.944;9.418;2022-07-06T09:35:06;99363.84;;;20.13;39.32
59154;BME280;44935;48.944;9.418;2022-07-06T09:37:33;99362.90;;;19.56;40.28
59154;BME280;44935;48.944;9.418;2022-07-06T09:40:00;99364.90;;;18.88;40.81
59154;BME280;44935;48.944;9.418;2022-07-06T09:42:28;99362.46;;;19.24;40.78
59154;BME280;44935;48.944;9.418;2022-07-06T09:44:55;99361.95;;;18.98;41.38
59154;BME280;44935;48.944;9.418;2022-07-06T09:47:22;99365.19;;;19.61;40.74
59154;BME280;44935;48.944;9.418;2022-07-06T09:49:49;99371.84;;;20.92;39.18
59154;BME280;44935;48.944;9.418;2022-07-06T09:52:15;99374.60;;;21.08;37.58
59154;BME280;44935;48.944;9.418;2022-07-06T09:54:42;99372.31;;;21.43;35.74
59154;BME280;44935;48.944;9.418;2022-07-06T09:57:09;99371.01;;;20.85;36.68
59154;BME280;44935;48.944;9.418;2022-07-06T09:59:37;99367.08;;;21.31;37.07
59154;BME280;44935;48.944;9.418;2022-07-06T10:02:05;99369.90;;;21.32;37.51
59154;BME280;44935;48.944;9.418;2022-07-06T10:04:33;99376.13;;;20.47;38.44
59154;BME280;44935;48.944;9.418;2022-07-06T10:06:59;99372.09;;;19.96;39.09
59154;BME280;44935;48.944;9.418;2022-07-06T10:09:28;99364.52;;;19.11;39.63
59154;BME280;44935;48.944;9.418;2022-07-06T10:11:57;99372.61;;;21.16;37.70
59154;BME280;44935;48.944;9.418;2022-07-06T10:14:26;99377.36;;;21.65;37.15
59154;BME280;44935;48.944;9.418;2022-07-06T10:16:55;99375.16;;;21.44;37.58
59154;BME280;44935;48.944;9.418;2022-07-06T10:19:23;99373.98;;;21.28;35.63
59154;BME280;44935;48.944;9.418;2022-07-06T10:21:50;99371.18;;;22.03;36.34
59154;BME280;44935;48.944;9.418;2022-07-06T10:24:19;99375.28;;;21.46;35.35
59154;BME280;44935;48.944;9.418;2022-07-06T10:26:48;99378.01;;;20.74;37.51
59154;BME280;44935;48.944;9.418;2022-07-06T10:29:15;99374.03;;;20.48;38.30
59154;BME280;44935;48.944;9.418;2022-07-06T10:31:44;99377.39;;;21.09;38.07
59154;BME280;44935;48.944;9.418;2022-07-06T10:34:15;99378.78;;;20.88;37.14
59154;BME280;44935;48.944;9.418;2022-07-06T10:36:44;99376.63;;;20.97;39.55
59154;BME280;44935;48.944;9.418;2022-07-06T10:39:11;99370.29;;;21.78;36.56
59154;BME280;44935;48.944;9.418;2022-07-06T10:41:38;99369.70;;;21.76;36.14
59154;BME280;44935;48.944;9.418;2022-07-06T10:44:15;99375.31;;;22.06;35.44
59154;BME280;44935;48.944;9.418;2022-07-06T10:46:50;99374.49;;;22.71;36.33
59154;BME280;44935;48.944;9.418;2022-07-06T10:49:18;99369.20;;;22.55;36.47
59154;BME280;44935;48.944;9.418;2022-07-06T10:51:46;99378.39;;;21.12;38.16
59154;BME280;44935;48.944;9.418;2022-07-06T10:54:15;99373.11;;;22.33;38.23
59154;BME280;44935;48.944;9.418;2022-07-06T10:56:45;99377.78;;;20.45;38.61
59154;BME280;44935;48.944;9.418;2022-07-06T10:59:13;99371.03;;;21.93;34.96
59154;BME280;44935;48.944;9.418;2022-07-06T11:02:11;99364.13;;;22.37;34.93
59154;BME280;44935;48.944;9.418;2022-07-06T11:04:38;99367.55;;;22.21;35.87
59154;BME280;44935;48.944;9.418;2022-07-06T11:07:08;99369.77;;;21.47;37.03
59154;BME280;44935;48.944;9.418;2022-07-06T11:09:35;99367.53;;;20.16;38.54
59154;BME280;44935;48.944;9.418;2022-07-06T11:12:12;99367.50;;;20.15;38.10
59154;BME280;44935;48.944;9.418;2022-07-06T11:14:41;99367.16;;;21.20;36.51
59154;BME280;44935;48.944;9.418;2022-07-06T11:17:10;99365.37;;;20.57;38.55
59154;BME280;44935;48.944;9.418;2022-07-06T11:19:37;99365.74;;;21.51;36.93
59154;BME280;44935;48.944;9.418;2022-07-06T11:22:07;99364.23;;;21.64;36.06
59154;BME280;44935;48.944;9.418;2022-07-06T11:24:36;99362.82;;;22.13;34.87
59154;BME280;44935;48.944;9.418;2022-07-06T11:27:04;99361.23;;;22.72;34.16
59154;BME280;44935;48.944;9.418;2022-07-06T11:29:31;99358.53;;;21.05;36.48
59154;BME280;44935;48.944;9.418;2022-07-06T11:32:00;99357.71;;;21.33;36.85
59154;BME280;44935;48.944;9.418;2022-07-06T11:34:29;99346.09;;;21.83;36.42
59154;BME280;44935;48.944;9.418;2022-07-06T11:37:00;99349.88;;;21.03;39.14
59154;BME280;44935;48.944;9.418;2022-07-06T11:39:28;99338.70;;;21.77;36.26
59154;BME280;44935;48.944;9.418;2022-07-06T11:41:56;99341.11;;;22.15;36.33
59154;BME280;44935;48.944;9.418;2022-07-06T11:44:24;99342.44;;;21.65;36.28
59154;BME280;44935;48.944;9.418;2022-07-06T11:46:52;99340.74;;;22.23;34.79
59154;BME280;44935;48.944;9.418;2022-07-06T11:49:19;99342.29;;;21.40;35.46
59154;BME280;44935;48.944;9.418;2022-07-06T11:51:46;99342.07;;;22.00;35.33
59154;BME280;44935;48.944;9.418;2022-07-06T11:54:15;99341.47;;;21.77;35.99
59154;BME280;44935;48.944;9.418;2022-07-06T11:56:47;99345.92;;;22.33;35.91
59154;BME280;44935;48.944;9.418;2022-07-06T11:59:16;99341.01;;;22.34;33.38
59154;BME280;44935;48.944;9.418;2022-07-06T12:01:43;99346.60;;;21.23;36.88
59154;BME280;44935;48.944;9.418;2022-07-06T12:04:11;99349.05;;;21.00;37.71
59154;BME280;44935;48.944;9.418;2022-07-06T12:06:38;99346.19;;;20.92;37.39
59154;BME280;44935;48.944;9.418;2022-07-06T12:09:05;99342.17;;;20.67;36.78
59154;BME280;44935;48.944;9.418;2022-07-06T12:11:33;99338.57;;;20.37;37.19
59154;BME280;44935;48.944;9.418;2022-07-06T12:14:11;99331.45;;;21.47;37.03
59154;BME280;44935;48.944;9.418;2022-07-06T12:16:39;99324.13;;;21.59;34.52
59154;BME280;44935;48.944;9.418;2022-07-06T12:19:07;99323.97;;;21.56;36.23
59154;BME280;44935;48.944;9.418;2022-07-06T12:21:35;99329.18;;;23.00;34.56
59154;BME280;44935;48.944;9.418;2022-07-06T12:24:06;99330.78;;;22.33;36.52
59154;BME280;44935;48.944;9.418;2022-07-06T12:26:39;99326.53;;;22.03;35.94
59154;BME280;44935;48.944;9.418;2022-07-06T12:29:09;99329.07;;;21.23;36.43
59154;BME280;44935;48.944;9.418;2022-07-06T12:31:37;99328.83;;;21.87;35.86
59154;BME280;44935;48.944;9.418;2022-07-06T12:34:12;99332.51;;;20.84;37.23
59154;BME280;44935;48.944;9.418;2022-07-06T12:36:42;99334.60;;;22.13;34.15
59154;BME280;44935;48.944;9.418;2022-07-06T12:39:11;99332.88;;;22.36;36.18
59154;BME280;44935;48.944;9.418;2022-07-06T12:41:44;99332.37;;;21.20;36.59
59154;BME280;44935;48.944;9.418;2022-07-06T12:44:11;99335.45;;;21.09;36.06
59154;BME280;44935;48.944;9.418;2022-07-06T12:46:40;99339.60;;;20.41;38.14
59154;BME280;44935;48.944;9.418;2022-07-06T12:49:17;99330.94;;;20.24;37.91
59154;BME280;44935;48.944;9.418;2022-07-06T12:52:01;99323.62;;;21.62;36.58
59154;BME280;44935;48.944;9.418;2022-07-06T12:54:32;99325.54;;;21.68;36.98
59154;BME280;44935;48.944;9.418;2022-07-06T12:57:02;99317.85;;;21.42;36.85
59154;BME280;44935;48.944;9.418;2022-07-06T12:59:29;99321.82;;;22.56;34.67
59154;BME280;44935;48.944;9.418;2022-07-06T13:01:57;99324.63;;;22.06;35.08